Time,TemperatureF,DewpointF,PressureIn,WindDirection,WindDirectionDegrees,WindSpeedMPH,WindSpeedGustMPH,Humidity,HourlyPrecipIn,Conditions,Clouds,dailyrainin,SoftwareType,DateUTC
2013-06-03 00:01:00,47.1,38.9,18.58,NNE,15,4.7,7.8,73,0.00,,,0.00,VWS V14.01,2013-06-03 04:01:00,
2013-06-03 00:02:00,46.9,38.8,18.58,NNE,14,4.0,7.8,73,0.00,,,0.00,VWS V14.01,2013-06-03 04:02:00,
2013-06-03 00:03:00,46.9,38.8,18.58,NNE,14,0.0,6.7,73,0.00,,,0.00,VWS V14.01,2013-06-03 04:03:00,
2013-06-03 00:04:00,46.9,38.8,18.58,NNE,14,0.0,0.0,73,0.00,,,0.00,VWS V14.01,2013-06-03 04:04:00,
2013-06-03 00:11:00,46.9,39.1,18.58,NNE,14,0.0,0.0,74,0.00,,,0.00,VWS V14.01,2013-06-03 04:11:00,
2013-06-03 00:16:00,46.8,38.9,18.58,NNE,14,4.0,6.7,74,0.00,,,0.00,VWS V14.01,2013-06-03 04:16:00,
2013-06-03 00:21:00,46.6,38.8,18.58,NNE,14,0.0,0.0,74,0.00,,,0.00,VWS V14.01,2013-06-03 04:21:00,
2013-06-03 00:27:00,46.6,38.4,18.58,NNE,14,0.0,0.0,73,0.00,,,0.00,VWS V14.01,2013-06-03 04:27:00,
2013-06-03 00:32:00,46.4,38.2,18.58,NNE,14,0.0,0.0,73,0.00,,,0.00,VWS V14.01,2013-06-03 04:32:00,
2013-06-03 00:38:00,46.4,38.6,18.58,NNE,23,0.0,0.0,74,0.00,,,0.00,VWS V14.01,2013-06-03 04:38:00,
2013-06-03 00:43:00,46.4,38.6,18.58,NNE,15,0.0,7.8,74,0.00,,,0.00,VWS V14.01,2013-06-03 04:43:00,
2013-06-03 00:49:00,46.2,38.4,18.58,NNE,21,0.0,6.7,74,0.00,,,0.00,VWS V14.01,2013-06-03 04:49:00,
2013-06-03 00:54:00,46.0,38.2,18.58,NNE,21,0.0,0.0,74,0.00,,,0.00,VWS V14.01,2013-06-03 04:54:00,
2013-06-03 01:00:00,46.0,38.2,18.58,NNE,21,0.0,0.0,74,0.00,,,0.00,VWS V14.01,2013-06-03 05:00:00,
2013-06-03 01:06:00,45.9,38.0,18.58,NNE,22,3.4,10.1,74,0.00,,,0.00,VWS V14.01,2013-06-03 05:06:00,
2013-06-03 01:11:00,45.9,38.0,18.58,North,9,4.0,6.7,74,0.00,,,0.00,VWS V14.01,2013-06-03 05:11:00,
2013-06-03 01:16:00,45.7,37.9,18.58,North,357,0.0,6.7,74,0.00,,,0.00,VWS V14.01,2013-06-03 05:16:00,
2013-06-03 01:21:00,45.5,38.0,18.58,NNE,14,4.7,7.8,75,0.00,,,0.00,VWS V14.01,2013-06-03 05:21:00,
2013-06-03 01:27:00,45.5,38.0,18.58,North,7,4.0,6.7,75,0.00,,,0.00,VWS V14.01,2013-06-03 05:27:00,
2013-06-03 01:32:00,45.5,38.0,18.58,NNE,16,4.0,6.7,75,0.00,,,0.00,VWS V14.01,2013-06-03 05:32:00,
2013-06-03 01:38:00,45.3,37.9,18.58,NNE,25,4.7,7.8,75,0.00,,,0.00,VWS V14.01,2013-06-03 05:38:00,
2013-06-03 01:43:00,45.3,37.9,18.58,NNE,20,3.4,7.8,75,0.00,,,0.00,VWS V14.01,2013-06-03 05:43:00,
2013-06-03 01:49:00,45.5,38.0,18.58,NE,34,0.0,0.0,75,0.00,,,0.00,VWS V14.01,2013-06-03 05:49:00,
2013-06-03 01:54:00,45.3,37.9,18.58,NE,34,0.0,0.0,75,0.00,,,0.00,VWS V14.01,2013-06-03 05:54:00,
2013-06-03 01:59:00,45.0,37.5,18.58,NE,34,0.0,0.0,75,0.00,,,0.00,VWS V14.01,2013-06-03 05:59:00,
2013-06-03 02:04:00,45.0,37.5,18.58,NE,34,0.0,6.7,75,0.00,,,0.00,VWS V14.01,2013-06-03 06:04:00,
2013-06-03 02:10:00,44.8,37.7,18.58,NE,34,0.0,0.0,76,0.00,,,0.00,VWS V14.01,2013-06-03 06:10:00,
2013-06-03 02:16:00,44.6,37.5,18.58,NE,34,0.0,0.0,76,0.00,,,0.00,VWS V14.01,2013-06-03 06:16:00,
2013-06-03 02:21:00,44.6,37.5,18.58,NE,34,0.0,0.0,76,0.00,,,0.00,VWS V14.01,2013-06-03 06:21:00,
2013-06-03 02:26:00,44.6,37.5,18.58,NE,34,0.0,0.0,76,0.00,,,0.00,VWS V14.01,2013-06-03 06:26:00,
2013-06-03 02:32:00,44.4,37.3,18.58,NE,34,0.0,0.0,76,0.00,,,0.00,VWS V14.01,2013-06-03 06:32:00,
2013-06-03 02:38:00,44.2,37.2,18.58,NE,34,0.0,0.0,76,0.00,,,0.00,VWS V14.01,2013-06-03 06:38:00,
2013-06-03 02:43:00,44.1,37.0,18.58,NE,34,0.0,0.0,76,0.00,,,0.00,VWS V14.01,2013-06-03 06:43:00,
2013-06-03 02:48:00,43.9,36.8,18.58,NE,34,0.0,0.0,76,0.00,,,0.00,VWS V14.01,2013-06-03 06:48:00,
2013-06-03 02:54:00,43.7,37.0,18.58,NE,34,0.0,0.0,77,0.00,,,0.00,VWS V14.01,2013-06-03 06:54:00,
2013-06-03 02:59:00,43.7,37.0,18.58,NE,34,0.0,0.0,77,0.00,,,0.00,VWS V14.01,2013-06-03 06:59:00,
2013-06-03 03:04:00,43.5,36.8,18.58,NE,34,0.0,0.0,77,0.00,,,0.00,VWS V14.01,2013-06-03 07:04:00,
2013-06-03 03:09:00,43.7,37.0,18.58,NE,34,0.0,0.0,77,0.00,,,0.00,VWS V14.01,2013-06-03 07:09:00,
2013-06-03 03:16:00,43.5,36.8,18.58,NE,34,0.0,0.0,77,0.00,,,0.00,VWS V14.01,2013-06-03 07:16:00,
2013-06-03 03:21:00,43.3,37.0,18.58,NE,34,0.0,0.0,78,0.00,,,0.00,VWS V14.01,2013-06-03 07:21:00,
2013-06-03 03:26:00,43.3,37.0,18.58,NE,34,0.0,0.0,78,0.00,,,0.00,VWS V14.01,2013-06-03 07:26:00,
2013-06-03 03:31:00,43.2,36.8,18.58,NE,34,0.0,0.0,78,0.00,,,0.00,VWS V14.01,2013-06-03 07:31:00,
2013-06-03 03:36:00,43.0,36.6,18.58,NE,34,0.0,0.0,78,0.00,,,0.00,VWS V14.01,2013-06-03 07:36:00,
2013-06-03 03:41:00,43.0,36.6,18.58,NE,34,0.0,0.0,78,0.00,,,0.00,VWS V14.01,2013-06-03 07:41:00,
2013-06-03 03:46:00,42.8,36.4,18.58,NE,34,0.0,0.0,78,0.00,,,0.00,VWS V14.01,2013-06-03 07:46:00,
2013-06-03 03:52:00,42.8,36.4,18.58,NE,34,0.0,0.0,78,0.00,,,0.00,VWS V14.01,2013-06-03 07:52:00,
2013-06-03 03:58:00,42.6,36.6,18.58,NE,34,0.0,0.0,79,0.00,,,0.00,VWS V14.01,2013-06-03 07:58:00,
2013-06-03 04:04:00,42.4,36.4,18.58,NE,34,0.0,0.0,79,0.00,,,0.00,VWS V14.01,2013-06-03 08:04:00,
2013-06-03 04:09:00,42.4,36.4,18.58,NE,34,0.0,0.0,79,0.00,,,0.00,VWS V14.01,2013-06-03 08:09:00,
2013-06-03 04:14:00,42.4,36.4,18.58,NE,34,0.0,0.0,79,0.00,,,0.00,VWS V14.01,2013-06-03 08:14:00,
2013-06-03 04:19:00,42.3,36.5,18.58,NE,34,0.0,0.0,80,0.00,,,0.00,VWS V14.01,2013-06-03 08:19:00,
2013-06-03 04:24:00,42.3,36.5,18.58,NE,34,0.0,0.0,80,0.00,,,0.00,VWS V14.01,2013-06-03 08:24:00,
2013-06-03 04:31:00,42.3,36.5,18.58,NE,34,0.0,0.0,80,0.00,,,0.00,VWS V14.01,2013-06-03 08:31:00,
2013-06-03 04:36:00,42.1,36.4,18.58,NE,34,0.0,0.0,80,0.00,,,0.00,VWS V14.01,2013-06-03 08:36:00,
2013-06-03 04:41:00,42.1,36.4,18.58,NE,34,0.0,0.0,80,0.00,,,0.00,VWS V14.01,2013-06-03 08:41:00,
2013-06-03 04:46:00,41.9,36.5,18.58,NE,34,0.0,0.0,81,0.00,,,0.00,VWS V14.01,2013-06-03 08:46:00,
2013-06-03 04:51:00,41.9,36.5,18.58,NE,34,0.0,0.0,81,0.00,,,0.00,VWS V14.01,2013-06-03 08:51:00,
2013-06-03 04:57:00,41.9,36.5,18.58,NE,34,0.0,0.0,81,0.00,,,0.00,VWS V14.01,2013-06-03 08:57:00,
2013-06-03 05:02:00,41.7,36.3,18.58,NE,34,0.0,0.0,81,0.00,,,0.00,VWS V14.01,2013-06-03 09:02:00,
2013-06-03 05:08:00,41.7,36.3,18.58,NE,34,0.0,0.0,81,0.00,,,0.00,VWS V14.01,2013-06-03 09:08:00,
2013-06-03 05:13:00,41.5,36.2,18.58,NE,34,0.0,0.0,81,0.00,,,0.00,VWS V14.01,2013-06-03 09:13:00,
2013-06-03 05:19:00,41.5,36.2,18.58,NE,34,0.0,0.0,81,0.00,,,0.00,VWS V14.01,2013-06-03 09:19:00,
2013-06-03 05:24:00,41.5,36.2,18.58,NE,34,0.0,0.0,81,0.00,,,0.00,VWS V14.01,2013-06-03 09:24:00,
2013-06-03 05:29:00,41.5,36.2,18.58,NE,34,0.0,0.0,81,0.00,,,0.00,VWS V14.01,2013-06-03 09:29:00,
2013-06-03 05:35:00,41.4,36.0,18.58,NE,34,0.0,0.0,81,0.00,,,0.00,VWS V14.01,2013-06-03 09:35:00,
2013-06-03 05:40:00,41.4,36.3,18.58,NE,34,0.0,0.0,82,0.00,,,0.00,VWS V14.01,2013-06-03 09:40:00,
2013-06-03 05:46:00,41.2,36.1,18.58,NE,34,0.0,0.0,82,0.00,,,0.00,VWS V14.01,2013-06-03 09:46:00,
2013-06-03 05:51:00,41.2,36.1,18.58,NE,34,0.0,0.0,82,0.00,,,0.00,VWS V14.01,2013-06-03 09:51:00,
2013-06-03 05:56:00,41.4,36.3,18.58,NE,34,0.0,0.0,82,0.00,,,0.00,VWS V14.01,2013-06-03 09:56:00,
2013-06-03 06:01:00,41.5,36.8,18.58,NNE,20,0.0,0.0,83,0.00,,,0.00,VWS V14.01,2013-06-03 10:01:00,
2013-06-03 06:06:00,41.5,37.1,18.58,NNE,20,0.0,0.0,84,0.00,,,0.00,VWS V14.01,2013-06-03 10:06:00,
2013-06-03 06:11:00,41.5,37.1,18.58,NNE,20,0.0,0.0,84,0.00,,,0.00,VWS V14.01,2013-06-03 10:11:00,
2013-06-03 06:17:00,41.7,37.5,18.58,NNE,20,0.0,0.0,85,0.00,,,0.00,VWS V14.01,2013-06-03 10:17:00,
2013-06-03 06:22:00,41.7,37.5,18.58,NNE,20,0.0,0.0,85,0.00,,,0.00,VWS V14.01,2013-06-03 10:22:00,
2013-06-03 06:27:00,41.7,37.8,18.58,NNE,20,0.0,0.0,86,0.00,,,0.00,VWS V14.01,2013-06-03 10:27:00,
2013-06-03 06:32:00,41.7,37.8,18.58,NNE,20,0.0,0.0,86,0.00,,,0.00,VWS V14.01,2013-06-03 10:32:00,
2013-06-03 06:38:00,41.7,37.8,18.58,NNE,20,0.0,0.0,86,0.00,,,0.00,VWS V14.01,2013-06-03 10:38:00,
2013-06-03 06:43:00,41.9,38.3,18.58,NNE,30,0.0,6.7,87,0.00,,,0.00,VWS V14.01,2013-06-03 10:43:00,
2013-06-03 06:49:00,41.9,38.3,18.58,NNE,14,4.0,6.7,87,0.00,,,0.00,VWS V14.01,2013-06-03 10:49:00,
2013-06-03 06:54:00,42.1,38.5,18.58,NNE,29,4.0,6.7,87,0.00,,,0.00,VWS V14.01,2013-06-03 10:54:00,
2013-06-03 07:01:00,42.3,38.7,18.58,NE,35,0.0,6.7,87,0.00,,,0.00,VWS V14.01,2013-06-03 11:01:00,
2013-06-03 07:06:00,42.6,39.0,18.58,NNE,26,0.0,0.0,87,0.00,,,0.00,VWS V14.01,2013-06-03 11:06:00,
2013-06-03 07:11:00,42.8,39.2,18.58,NNE,32,4.0,6.7,87,0.00,,,0.00,VWS V14.01,2013-06-03 11:11:00,
2013-06-03 07:16:00,42.8,39.2,18.58,NNE,32,0.0,0.0,87,0.00,,,0.00,VWS V14.01,2013-06-03 11:16:00,
2013-06-03 07:21:00,43.0,39.4,18.58,NNE,32,0.0,0.0,87,0.00,,,0.00,VWS V14.01,2013-06-03 11:21:00,
2013-06-03 07:27:00,43.3,39.7,18.58,NNE,32,0.0,0.0,87,0.00,,,0.00,VWS V14.01,2013-06-03 11:27:00,
2013-06-03 07:32:00,44.1,40.5,18.58,NNE,32,0.0,0.0,87,0.00,,,0.00,VWS V14.01,2013-06-03 11:32:00,
2013-06-03 07:37:00,44.1,40.5,18.58,NNE,32,0.0,0.0,87,0.00,,,0.00,VWS V14.01,2013-06-03 11:37:00,
2013-06-03 07:42:00,44.1,40.5,18.58,NNE,25,0.0,0.0,87,0.00,,,0.00,VWS V14.01,2013-06-03 11:42:00,
2013-06-03 07:48:00,44.2,40.6,18.58,NNE,25,0.0,0.0,87,0.00,,,0.00,VWS V14.01,2013-06-03 11:48:00,
2013-06-03 07:54:00,44.6,41.0,18.58,NNE,25,0.0,0.0,87,0.00,,,0.00,VWS V14.01,2013-06-03 11:54:00,
2013-06-03 08:00:00,45.0,41.3,18.58,NNE,25,0.0,0.0,87,0.00,,,0.00,VWS V14.01,2013-06-03 12:00:00,
2013-06-03 08:06:00,45.0,41.3,18.58,NNE,25,0.0,0.0,87,0.00,,,0.00,VWS V14.01,2013-06-03 12:06:00,
2013-06-03 08:11:00,45.3,41.7,18.58,NNE,14,4.0,6.7,87,0.00,,,0.00,VWS V14.01,2013-06-03 12:11:00,
2013-06-03 08:16:00,45.5,41.9,18.58,North,10,0.0,5.6,87,0.00,,,0.00,VWS V14.01,2013-06-03 12:16:00,
2013-06-03 08:21:00,45.9,42.2,18.58,NNE,12,0.0,0.0,87,0.00,,,0.00,VWS V14.01,2013-06-03 12:21:00,
2013-06-03 08:26:00,46.0,42.1,18.58,NNE,12,0.0,0.0,86,0.00,,,0.00,VWS V14.01,2013-06-03 12:26:00,
2013-06-03 08:31:00,46.4,42.5,18.58,NNE,12,0.0,0.0,86,0.00,,,0.00,VWS V14.01,2013-06-03 12:31:00,
2013-06-03 08:37:00,46.6,42.6,18.58,NNE,12,0.0,0.0,86,0.00,,,0.00,VWS V14.01,2013-06-03 12:37:00,
2013-06-03 08:43:00,46.9,43.0,18.58,NNE,12,0.0,0.0,86,0.00,,,0.00,VWS V14.01,2013-06-03 12:43:00,
2013-06-03 08:49:00,47.3,43.3,18.58,NNE,12,0.0,0.0,86,0.00,,,0.00,VWS V14.01,2013-06-03 12:49:00,
2013-06-03 08:54:00,47.8,43.6,18.58,NNE,12,0.0,0.0,85,0.00,,,0.00,VWS V14.01,2013-06-03 12:54:00,
2013-06-03 08:59:00,48.0,43.7,18.58,NNE,12,3.4,6.7,85,0.00,,,0.00,VWS V14.01,2013-06-03 12:59:00,
2013-06-03 09:04:00,48.2,43.6,18.58,North,9,0.0,5.6,84,0.00,,,0.00,VWS V14.01,2013-06-03 13:04:00,
2013-06-03 09:11:00,48.4,43.5,18.58,NNE,16,4.0,6.7,83,0.00,,,0.00,VWS V14.01,2013-06-03 13:11:00,
2013-06-03 09:16:00,48.9,43.3,18.58,NNE,29,5.4,8.9,81,0.00,,,0.00,VWS V14.01,2013-06-03 13:16:00,
2013-06-03 09:21:00,49.5,43.6,18.58,East,94,0.0,0.0,80,0.00,,,0.00,VWS V14.01,2013-06-03 13:21:00,
2013-06-03 09:27:00,55.6,47.8,18.58,NE,52,0.0,0.0,75,0.00,,,0.00,VWS V14.01,2013-06-03 13:27:00,
2013-06-03 09:33:00,55.9,45.5,18.58,North,10,0.0,6.7,68,0.00,,,0.00,VWS V14.01,2013-06-03 13:33:00,
2013-06-03 09:38:00,53.8,43.9,18.58,NNE,16,0.0,0.0,69,0.00,,,0.00,VWS V14.01,2013-06-03 13:38:00,
2013-06-03 09:43:00,53.6,43.7,18.58,NE,43,5.4,10.1,69,0.00,,,0.00,VWS V14.01,2013-06-03 13:43:00,
2013-06-03 09:48:00,53.2,42.6,18.58,North,353,0.0,0.0,67,0.00,,,0.00,VWS V14.01,2013-06-03 13:48:00,
2013-06-03 09:53:00,53.1,42.0,18.58,NNE,29,0.0,6.7,66,0.00,,,0.00,VWS V14.01,2013-06-03 13:53:00,
2013-06-03 09:59:00,53.1,40.4,18.58,NNE,22,4.0,7.8,62,0.00,,,0.00,VWS V14.01,2013-06-03 13:59:00,
2013-06-03 10:05:00,53.2,39.7,18.58,NNE,12,5.4,8.9,60,0.00,,,0.00,VWS V14.01,2013-06-03 14:05:00,
2013-06-03 10:11:00,53.2,38.9,18.58,NNE,15,0.0,7.8,58,0.00,,,0.00,VWS V14.01,2013-06-03 14:11:00,
2013-06-03 10:16:00,53.4,37.2,18.58,NNE,17,0.0,7.8,54,0.00,,,0.00,VWS V14.01,2013-06-03 14:16:00,
2013-06-03 10:21:00,54.0,37.7,18.58,NNE,33,4.7,7.8,54,0.00,,,0.00,VWS V14.01,2013-06-03 14:21:00,
2013-06-03 10:26:00,54.3,37.6,18.58,WNW,299,0.0,0.0,53,0.00,,,0.00,VWS V14.01,2013-06-03 14:26:00,
2013-06-03 10:31:00,54.5,37.2,18.58,WNW,303,0.0,0.0,52,0.00,,,0.00,VWS V14.01,2013-06-03 14:31:00,
2013-06-03 10:36:00,55.0,36.8,18.58,NNE,28,0.0,10.1,50,0.00,,,0.00,VWS V14.01,2013-06-03 14:36:00,
2013-06-03 10:41:00,55.4,36.6,18.58,North,6,0.0,5.6,49,0.00,,,0.00,VWS V14.01,2013-06-03 14:41:00,
2013-06-03 10:46:00,55.8,36.9,18.58,NE,35,0.0,7.8,49,0.00,,,0.00,VWS V14.01,2013-06-03 14:46:00,
2013-06-03 10:51:00,56.3,36.9,18.58,NNE,27,0.0,0.0,48,0.00,,,0.00,VWS V14.01,2013-06-03 14:51:00,
2013-06-03 10:56:00,57.0,37.5,18.58,NNE,29,0.0,0.0,48,0.00,,,0.00,VWS V14.01,2013-06-03 14:56:00,
2013-06-03 11:02:00,58.3,38.2,18.58,WSW,238,0.0,0.0,47,0.00,,,0.00,VWS V14.01,2013-06-03 15:02:00,
2013-06-03 11:08:00,59.2,37.9,18.58,NW,318,4.0,6.7,45,0.00,,,0.00,VWS V14.01,2013-06-03 15:08:00,
2013-06-03 11:13:00,60.1,39.2,18.58,NNE,21,0.0,6.7,46,0.00,,,0.00,VWS V14.01,2013-06-03 15:13:00,
2013-06-03 11:18:00,60.1,38.1,18.58,North,353,0.0,0.0,44,0.00,,,0.00,VWS V14.01,2013-06-03 15:18:00,
2013-06-03 11:23:00,61.9,41.5,18.58,NW,306,0.0,5.6,47,0.00,,,0.00,VWS V14.01,2013-06-03 15:23:00,
2013-06-03 11:29:00,63.0,42.4,18.58,NNW,341,0.0,0.0,47,0.00,,,0.00,VWS V14.01,2013-06-03 15:29:00,
2013-06-03 11:34:00,63.3,41.6,18.58,NE,41,3.4,10.1,45,0.00,,,0.00,VWS V14.01,2013-06-03 15:34:00,
2013-06-03 11:41:00,63.9,41.0,18.58,North,357,0.0,5.6,43,0.00,,,0.00,VWS V14.01,2013-06-03 15:41:00,
2013-06-03 11:47:00,63.9,39.1,18.58,NW,318,4.0,6.7,40,0.00,,,0.00,VWS V14.01,2013-06-03 15:47:00,
2013-06-03 11:52:00,63.9,39.1,18.58,NNE,15,4.7,10.1,40,0.00,,,0.00,VWS V14.01,2013-06-03 15:52:00,
2013-06-03 11:57:00,63.9,37.1,18.58,WSW,243,4.0,13.4,37,0.00,,,0.00,VWS V14.01,2013-06-03 15:57:00,
2013-06-03 12:02:00,64.6,39.1,18.58,North,10,4.7,8.9,39,0.00,,,0.00,VWS V14.01,2013-06-03 16:02:00,
2013-06-03 12:08:00,64.4,37.6,18.58,NE,49,3.4,8.9,37,0.00,,,0.00,VWS V14.01,2013-06-03 16:08:00,
2013-06-03 12:14:00,64.8,37.2,18.58,NNE,15,5.4,13.4,36,0.00,,,0.00,VWS V14.01,2013-06-03 16:14:00,
2013-06-03 12:19:00,64.9,36.7,18.58,NNW,341,0.0,0.0,35,0.00,,,0.00,VWS V14.01,2013-06-03 16:19:00,
2013-06-03 12:26:00,65.3,37.0,18.58,North,0,0.0,5.6,35,0.00,,,0.00,VWS V14.01,2013-06-03 16:26:00,
2013-06-03 12:31:00,65.3,36.2,18.58,West,277,4.7,10.1,34,0.00,,,0.00,VWS V14.01,2013-06-03 16:31:00,
2013-06-03 12:37:00,66.4,37.9,18.58,North,3,0.0,6.7,35,0.00,,,0.00,VWS V14.01,2013-06-03 16:37:00,
2013-06-03 12:43:00,66.6,38.1,18.58,North,353,4.0,8.9,35,0.00,,,0.00,VWS V14.01,2013-06-03 16:43:00,
2013-06-03 12:49:00,66.6,36.6,18.58,NNW,327,0.0,6.7,33,0.00,,,0.00,VWS V14.01,2013-06-03 16:49:00,
2013-06-03 12:54:00,67.3,38.0,18.58,NNW,327,3.4,8.9,34,0.00,,,0.00,VWS V14.01,2013-06-03 16:54:00,
2013-06-03 13:01:00,67.6,38.3,18.58,West,259,0.0,6.7,34,0.00,,,0.00,VWS V14.01,2013-06-03 17:01:00,
2013-06-03 13:07:00,68.4,39.7,18.58,North,10,4.7,7.8,35,0.00,,,0.00,VWS V14.01,2013-06-03 17:07:00,
2013-06-03 13:13:00,68.2,38.0,18.58,NNE,19,4.0,6.7,33,0.00,,,0.00,VWS V14.01,2013-06-03 17:13:00,
2013-06-03 13:18:00,68.2,38.0,18.58,NNE,18,4.0,6.7,33,0.00,,,0.00,VWS V14.01,2013-06-03 17:18:00,
2013-06-03 13:23:00,68.4,37.4,18.58,NE,53,3.4,8.9,32,0.00,,,0.00,VWS V14.01,2013-06-03 17:23:00,
2013-06-03 13:28:00,68.5,37.5,18.58,NNE,27,8.1,13.4,32,0.00,,,0.00,VWS V14.01,2013-06-03 17:28:00,
2013-06-03 13:33:00,68.9,37.8,18.58,SW,219,3.4,5.6,32,0.00,,,0.00,VWS V14.01,2013-06-03 17:33:00,
2013-06-03 13:39:00,69.4,38.3,18.58,NE,34,0.0,0.0,32,0.00,,,0.00,VWS V14.01,2013-06-03 17:39:00,
2013-06-03 13:44:00,69.4,36.7,18.58,NW,319,3.4,6.7,30,0.00,,,0.00,VWS V14.01,2013-06-03 17:44:00,
2013-06-03 13:49:00,70.0,39.6,18.58,SW,228,0.0,0.0,33,0.00,,,0.00,VWS V14.01,2013-06-03 17:49:00,
2013-06-03 13:54:00,70.2,40.5,18.58,NE,50,0.0,0.0,34,0.00,,,0.00,VWS V14.01,2013-06-03 17:54:00,
2013-06-03 14:00:00,70.3,39.1,18.58,NNE,16,6.0,12.3,32,0.00,,,0.00,VWS V14.01,2013-06-03 18:00:00,
2013-06-03 14:06:00,70.7,40.2,18.58,ESE,123,0.0,0.0,33,0.00,,,0.00,VWS V14.01,2013-06-03 18:06:00,
2013-06-03 14:11:00,71.1,39.7,18.58,NNE,12,0.0,7.8,32,0.00,,,0.00,VWS V14.01,2013-06-03 18:11:00,
2013-06-03 14:17:00,72.1,40.7,18.58,NW,311,4.7,13.4,32,0.00,,,0.00,VWS V14.01,2013-06-03 18:17:00,
2013-06-03 14:22:00,72.3,41.6,18.58,NNE,26,0.0,0.0,33,0.00,,,0.00,VWS V14.01,2013-06-03 18:22:00,
2013-06-03 14:28:00,71.4,40.0,18.58,NNE,15,4.7,8.9,32,0.00,,,0.00,VWS V14.01,2013-06-03 18:28:00,
2013-06-03 14:33:00,72.7,42.0,18.58,SSE,167,0.0,0.0,33,0.00,,,0.00,VWS V14.01,2013-06-03 18:33:00,
2013-06-03 14:38:00,72.9,40.5,18.58,NNW,345,4.7,7.8,31,0.00,,,0.00,VWS V14.01,2013-06-03 18:38:00,
2013-06-03 14:44:00,73.6,41.1,18.58,NNE,28,3.4,5.6,31,0.00,,,0.00,VWS V14.01,2013-06-03 18:44:00,
2013-06-03 14:49:00,72.7,38.6,18.58,NNW,338,3.4,14.5,29,0.00,,,0.00,VWS V14.01,2013-06-03 18:49:00,
2013-06-03 14:54:00,73.0,38.9,18.58,NNE,28,4.0,13.4,29,0.00,,,0.00,VWS V14.01,2013-06-03 18:54:00,
2013-06-03 14:59:00,72.9,38.8,18.58,NE,36,6.0,12.3,29,0.00,,,0.00,VWS V14.01,2013-06-03 18:59:00,
2013-06-03 15:04:00,72.3,40.0,18.58,NNE,27,0.0,8.9,31,0.00,,,0.00,VWS V14.01,2013-06-03 19:04:00,
2013-06-03 15:11:00,73.8,39.5,18.58,NNW,332,4.7,10.1,29,0.00,,,0.00,VWS V14.01,2013-06-03 19:11:00,
2013-06-03 15:17:00,72.9,34.0,18.58,North,6,4.0,6.7,24,0.00,,,0.00,VWS V14.01,2013-06-03 19:17:00,
2013-06-03 15:23:00,73.0,35.2,18.58,NNE,16,4.0,8.9,25,0.00,,,0.00,VWS V14.01,2013-06-03 19:23:00,
2013-06-03 15:28:00,73.0,36.2,18.58,North,4,4.7,11.2,26,0.00,,,0.00,VWS V14.01,2013-06-03 19:28:00,
2013-06-03 15:34:00,72.3,34.6,18.58,ENE,59,3.4,7.8,25,0.00,,,0.00,VWS V14.01,2013-06-03 19:34:00,
2013-06-03 15:41:00,74.3,40.9,18.58,NW,304,0.0,6.7,30,0.00,,,0.00,VWS V14.01,2013-06-03 19:41:00,
2013-06-03 15:46:00,74.7,40.3,18.58,West,261,0.0,0.0,29,0.00,,,0.00,VWS V14.01,2013-06-03 19:46:00,
2013-06-03 15:52:00,74.7,38.5,18.58,North,11,4.0,12.3,27,0.00,,,0.00,VWS V14.01,2013-06-03 19:52:00,
2013-06-03 15:57:00,74.1,39.0,18.58,NNW,332,5.4,15.7,28,0.00,,,0.00,VWS V14.01,2013-06-03 19:57:00,
2013-06-03 16:02:00,76.1,43.3,18.58,NW,308,0.0,7.8,31,0.00,,,0.00,VWS V14.01,2013-06-03 20:02:00,
2013-06-03 16:08:00,76.8,43.9,18.58,North,0,0.0,10.1,31,0.00,,,0.00,VWS V14.01,2013-06-03 20:08:00,
2013-06-03 16:13:00,76.6,41.1,18.58,NNW,341,4.0,10.1,28,0.00,,,0.00,VWS V14.01,2013-06-03 20:13:00,
2013-06-03 16:18:00,76.1,41.6,18.58,NW,319,0.0,7.8,29,0.00,,,0.00,VWS V14.01,2013-06-03 20:18:00,
2013-06-03 16:23:00,74.8,39.6,18.58,NW,314,4.0,8.9,28,0.00,,,0.00,VWS V14.01,2013-06-03 20:23:00,
2013-06-03 16:28:00,76.3,41.7,18.58,North,353,0.0,6.7,29,0.00,,,0.00,VWS V14.01,2013-06-03 20:28:00,
2013-06-03 16:34:00,73.6,36.6,18.58,North,4,4.7,10.1,26,0.00,,,0.00,VWS V14.01,2013-06-03 20:34:00,
2013-06-03 16:39:00,73.2,37.3,18.58,NNW,334,4.7,8.9,27,0.00,,,0.00,VWS V14.01,2013-06-03 20:39:00,
2013-06-03 16:44:00,71.2,39.9,18.58,NNW,341,0.0,10.1,32,0.00,,,0.00,VWS V14.01,2013-06-03 20:44:00,
2013-06-03 16:51:00,71.8,40.4,18.58,North,11,4.0,6.7,32,0.00,,,0.00,VWS V14.01,2013-06-03 20:51:00,
2013-06-03 16:56:00,72.9,42.1,18.58,North,357,5.4,10.1,33,0.00,,,0.00,VWS V14.01,2013-06-03 20:56:00,
2013-06-03 17:02:00,74.8,43.0,18.58,WNW,301,5.4,13.4,32,0.00,,,0.00,VWS V14.01,2013-06-03 21:02:00,
2013-06-03 17:07:00,73.8,41.3,18.58,NW,325,0.0,0.0,31,0.00,,,0.00,VWS V14.01,2013-06-03 21:07:00,
2013-06-03 17:12:00,70.9,40.4,18.58,North,1,3.4,8.9,33,0.00,,,0.00,VWS V14.01,2013-06-03 21:12:00,
2013-06-03 17:18:00,70.3,40.7,18.58,NW,325,5.4,8.9,34,0.00,,,0.00,VWS V14.01,2013-06-03 21:18:00,
2013-06-03 17:23:00,72.5,42.6,18.58,NW,313,4.0,7.8,34,0.00,,,0.00,VWS V14.01,2013-06-03 21:23:00,
2013-06-03 17:29:00,74.3,44.1,18.58,WNW,303,4.0,8.9,34,0.00,,,0.00,VWS V14.01,2013-06-03 21:29:00,
2013-06-03 17:34:00,74.7,43.7,18.58,NNW,334,4.7,8.9,33,0.00,,,0.00,VWS V14.01,2013-06-03 21:34:00,
2013-06-03 17:39:00,74.3,43.4,18.58,North,353,6.0,12.3,33,0.00,,,0.00,VWS V14.01,2013-06-03 21:39:00,
2013-06-03 17:44:00,72.5,41.8,18.58,NNW,332,4.7,7.8,33,0.00,,,0.00,VWS V14.01,2013-06-03 21:44:00,
2013-06-03 17:49:00,72.9,42.1,18.58,NNW,340,5.4,8.9,33,0.00,,,0.00,VWS V14.01,2013-06-03 21:49:00,
2013-06-03 17:57:00,74.1,43.2,18.58,North,0,0.0,6.7,33,0.00,,,0.00,VWS V14.01,2013-06-03 21:57:00,
2013-06-03 18:02:00,73.2,40.0,18.58,NNW,340,3.4,8.9,30,0.00,,,0.00,VWS V14.01,2013-06-03 22:02:00,
2013-06-03 18:08:00,72.9,40.5,18.58,North,11,4.0,6.7,31,0.00,,,0.00,VWS V14.01,2013-06-03 22:08:00,
2013-06-03 18:14:00,71.2,39.9,18.58,North,357,3.4,8.9,32,0.00,,,0.00,VWS V14.01,2013-06-03 22:14:00,
2013-06-03 18:19:00,71.2,39.9,18.58,North,350,4.7,10.1,32,0.00,,,0.00,VWS V14.01,2013-06-03 22:19:00,
2013-06-03 18:24:00,71.6,41.0,18.58,North,0,3.4,6.7,33,0.00,,,0.00,VWS V14.01,2013-06-03 22:24:00,
2013-06-03 18:29:00,72.3,40.8,18.58,NNW,346,3.4,10.1,32,0.00,,,0.00,VWS V14.01,2013-06-03 22:29:00,
2013-06-03 18:34:00,70.3,39.1,18.58,North,2,4.0,7.8,32,0.00,,,0.00,VWS V14.01,2013-06-03 22:34:00,
2013-06-03 18:40:00,69.4,39.1,18.58,NNW,336,8.1,13.4,33,0.00,,,0.00,VWS V14.01,2013-06-03 22:40:00,
2013-06-03 18:47:00,70.3,39.9,18.58,North,353,0.0,8.9,33,0.00,,,0.00,VWS V14.01,2013-06-03 22:47:00,
2013-06-03 18:52:00,68.7,37.7,18.58,NNW,345,3.4,12.3,32,0.00,,,0.00,VWS V14.01,2013-06-03 22:52:00,
2013-06-03 18:58:00,68.0,37.8,18.58,NNW,345,4.0,14.5,33,0.00,,,0.00,VWS V14.01,2013-06-03 22:58:00,
2013-06-03 19:04:00,67.1,37.1,18.58,North,353,3.4,10.1,33,0.00,,,0.00,VWS V14.01,2013-06-03 23:04:00,
2013-06-03 19:09:00,66.9,36.9,18.58,NNW,334,4.0,12.3,33,0.00,,,0.00,VWS V14.01,2013-06-03 23:09:00,
2013-06-03 19:16:00,67.3,37.2,18.58,NW,317,5.4,12.3,33,0.00,,,0.00,VWS V14.01,2013-06-03 23:16:00,
2013-06-03 19:22:00,67.8,38.5,18.58,North,0,4.0,6.7,34,0.00,,,0.00,VWS V14.01,2013-06-03 23:22:00,
2013-06-03 19:28:00,67.3,37.2,18.58,North,353,4.0,12.3,33,0.00,,,0.00,VWS V14.01,2013-06-03 23:28:00,
2013-06-03 19:33:00,66.6,36.6,18.58,North,349,4.0,14.5,33,0.00,,,0.00,VWS V14.01,2013-06-03 23:33:00,
2013-06-03 19:38:00,66.6,36.6,18.58,North,8,0.0,7.8,33,0.00,,,0.00,VWS V14.01,2013-06-03 23:38:00,
2013-06-03 19:43:00,66.2,37.0,18.58,NNW,329,4.7,13.4,34,0.00,,,0.00,VWS V14.01,2013-06-03 23:43:00,
2013-06-03 19:49:00,65.3,36.2,18.58,NNW,334,6.0,12.3,34,0.00,,,0.00,VWS V14.01,2013-06-03 23:49:00,
2013-06-03 19:54:00,64.6,35.6,18.58,North,0,4.7,10.1,34,0.00,,,0.00,VWS V14.01,2013-06-03 23:54:00,
2013-06-03 19:59:00,64.4,35.5,18.58,NNW,336,4.7,8.9,34,0.00,,,0.00,VWS V14.01,2013-06-03 23:59:00,
2013-06-03 20:04:00,63.9,35.0,18.58,NNW,342,6.0,10.1,34,0.00,,,0.00,VWS V14.01,2013-06-04 00:04:00,
2013-06-03 20:09:00,63.3,34.5,18.58,NW,322,4.7,10.1,34,0.00,,,0.00,VWS V14.01,2013-06-04 00:09:00,
2013-06-03 20:14:00,63.0,34.2,18.58,NW,322,4.0,8.9,34,0.00,,,0.00,VWS V14.01,2013-06-04 00:14:00,
2013-06-03 20:21:00,62.4,34.4,18.58,NW,318,4.7,7.8,35,0.00,,,0.00,VWS V14.01,2013-06-04 00:21:00,
2013-06-03 20:27:00,61.9,34.0,18.58,NNW,328,4.7,7.8,35,0.00,,,0.00,VWS V14.01,2013-06-04 00:27:00,
2013-06-03 20:33:00,61.5,34.3,18.58,NW,317,0.0,0.0,36,0.00,,,0.00,VWS V14.01,2013-06-04 00:33:00,
2013-06-03 20:38:00,61.2,34.0,18.58,NW,317,0.0,0.0,36,0.00,,,0.00,VWS V14.01,2013-06-04 00:38:00,
2013-06-03 20:43:00,60.6,34.2,18.58,NW,317,0.0,0.0,37,0.00,,,0.00,VWS V14.01,2013-06-04 00:43:00,
2013-06-03 20:49:00,60.3,34.6,18.58,NW,317,0.0,0.0,38,0.00,,,0.00,VWS V14.01,2013-06-04 00:49:00,
2013-06-03 20:56:00,59.5,34.6,18.58,NW,317,0.0,0.0,39,0.00,,,0.00,VWS V14.01,2013-06-04 00:56:00,
2013-06-03 21:02:00,58.6,35.6,18.58,NW,317,0.0,0.0,42,0.00,,,0.00,VWS V14.01,2013-06-04 01:02:00,
2013-06-03 21:08:00,58.5,36.1,18.58,NW,317,0.0,0.0,43,0.00,,,0.00,VWS V14.01,2013-06-04 01:08:00,
2013-06-03 21:14:00,58.1,36.3,18.58,NW,317,0.0,0.0,44,0.00,,,0.00,VWS V14.01,2013-06-04 01:14:00,
2013-06-03 21:21:00,57.2,36.1,18.58,NW,317,0.0,0.0,45,0.00,,,0.00,VWS V14.01,2013-06-04 01:21:00,
2013-06-03 21:26:00,56.5,36.5,18.58,NW,317,0.0,0.0,47,0.00,,,0.00,VWS V14.01,2013-06-04 01:26:00,
2013-06-03 21:31:00,56.1,36.2,18.58,NW,317,0.0,0.0,47,0.00,,,0.00,VWS V14.01,2013-06-04 01:31:00,
2013-06-03 21:36:00,55.8,36.4,18.58,NW,317,0.0,0.0,48,0.00,,,0.00,VWS V14.01,2013-06-04 01:36:00,
2013-06-03 21:42:00,55.6,36.2,18.58,NW,317,0.0,0.0,48,0.00,,,0.00,VWS V14.01,2013-06-04 01:42:00,
2013-06-03 21:47:00,55.4,36.6,18.58,NW,317,0.0,0.0,49,0.00,,,0.00,VWS V14.01,2013-06-04 01:47:00,
2013-06-03 21:52:00,54.9,37.1,18.58,NW,317,0.0,0.0,51,0.00,,,0.00,VWS V14.01,2013-06-04 01:52:00,
2013-06-03 21:57:00,54.5,37.2,18.58,NW,317,0.0,0.0,52,0.00,,,0.00,VWS V14.01,2013-06-04 01:57:00,
2013-06-03 22:03:00,54.5,37.2,18.58,NW,317,0.0,0.0,52,0.00,,,0.00,VWS V14.01,2013-06-04 02:03:00,
2013-06-03 22:08:00,54.3,37.6,18.58,NW,317,0.0,0.0,53,0.00,,,0.00,VWS V14.01,2013-06-04 02:08:00,
2013-06-03 22:13:00,54.0,37.7,18.58,NW,317,0.0,0.0,54,0.00,,,0.00,VWS V14.01,2013-06-04 02:13:00,
2013-06-03 22:19:00,53.6,37.8,18.58,NW,317,0.0,0.0,55,0.00,,,0.00,VWS V14.01,2013-06-04 02:19:00,
2013-06-03 22:24:00,53.2,38.0,18.58,NW,317,0.0,0.0,56,0.00,,,0.00,VWS V14.01,2013-06-04 02:24:00,
2013-06-03 22:31:00,52.9,38.1,18.58,NW,317,0.0,0.0,57,0.00,,,0.00,VWS V14.01,2013-06-04 02:31:00,
2013-06-03 22:36:00,52.5,37.7,18.58,NW,317,0.0,0.0,57,0.00,,,0.00,VWS V14.01,2013-06-04 02:36:00,
2013-06-03 22:42:00,52.0,37.7,18.58,NW,317,0.0,0.0,58,0.00,,,0.00,VWS V14.01,2013-06-04 02:42:00,
2013-06-03 22:47:00,51.8,37.9,18.58,NW,317,0.0,0.0,59,0.00,,,0.00,VWS V14.01,2013-06-04 02:47:00,
2013-06-03 22:52:00,51.4,38.0,18.58,NW,317,0.0,0.0,60,0.00,,,0.00,VWS V14.01,2013-06-04 02:52:00,
2013-06-03 22:58:00,51.1,37.7,18.58,NW,317,0.0,0.0,60,0.00,,,0.00,VWS V14.01,2013-06-04 02:58:00,
2013-06-03 23:03:00,50.9,38.0,18.58,NW,317,0.0,0.0,61,0.00,,,0.00,VWS V14.01,2013-06-04 03:03:00,
2013-06-03 23:09:00,50.9,38.4,18.58,NW,317,0.0,0.0,62,0.00,,,0.00,VWS V14.01,2013-06-04 03:09:00,
2013-06-03 23:14:00,50.5,38.0,18.58,NW,317,0.0,0.0,62,0.00,,,0.00,VWS V14.01,2013-06-04 03:14:00,
2013-06-03 23:21:00,50.4,38.3,18.58,NW,317,0.0,0.0,63,0.00,,,0.00,VWS V14.01,2013-06-04 03:21:00,
2013-06-03 23:27:00,50.4,38.3,18.58,NW,317,0.0,0.0,63,0.00,,,0.00,VWS V14.01,2013-06-04 03:27:00,
2013-06-03 23:32:00,50.2,38.1,18.58,NW,317,0.0,0.0,63,0.00,,,0.00,VWS V14.01,2013-06-04 03:32:00,
2013-06-03 23:37:00,50.2,38.5,18.58,NW,317,0.0,0.0,64,0.00,,,0.00,VWS V14.01,2013-06-04 03:37:00,
2013-06-03 23:43:00,50.2,38.9,18.58,NW,317,0.0,0.0,65,0.00,,,0.00,VWS V14.01,2013-06-04 03:43:00,
2013-06-03 23:48:00,50.0,38.7,18.58,NW,317,0.0,0.0,65,0.00,,,0.00,VWS V14.01,2013-06-04 03:48:00,
2013-06-03 23:54:00,49.8,38.9,18.58,NW,317,0.0,0.0,66,0.00,,,0.00,VWS V14.01,2013-06-04 03:54:00,
2013-06-03 23:59:00,49.6,38.8,18.58,NW,317,0.0,0.0,66,0.00,,,0.00,VWS V14.01,2013-06-04 03:59:00,